Terminal Aerodrome Forecast
Issued by NWS

Home | Current Version | Previous Version | Text Only | Print | Product List | Glossary On
Versions: 1 2 3 4 5 6 7 8 9 10 11 12 13 14 15 16 17 18 19 20 21
000
FTUS44 KOUN 232320
TAFHBR
TAF
KHBR 232320Z 2400/2424 06010G20KT P6SM VCTS BKN050CB OVC100
      TEMPO 2400/2402 VRB40KT 2SM TSRA BKN040CB
     FM240200 08006KT P6SM SCT060 BKN250=

USA.gov is the U.S. government's official web portal to all federal, state and local government web resources and services.